Time;durP1;ratioP1;P1;durP2;ratioP2;P2;SDS_P1;SDS_P2;PMS_P1;PMS_P2;Temp;Humidity;BMP_temperature;BMP_pressure;BME280_temperature;BME280_humidity;BME280_pressure;Samples;Min_cycle;Max_cycle;Signal;HPM_P1;HPM_P2
2023/04/21 00:01:39;;;;;;;14.43;11.53;;;10.90;99.90;;;;;;4947846;29;20460;-81
2023/04/21 00:04:38;;;;;;;13.60;12.20;;;10.70;99.90;;;;;;4907037;28;20465;-84
2023/04/21 00:07:31;;;;;;;12.70;11.40;;;10.70;99.90;;;;;;4962536;28;20475;-83
2023/04/21 00:10:31;;;;;;;13.10;11.50;;;10.60;99.90;;;;;;4966632;28;20453;-83
2023/04/21 00:13:25;;;;;;;15.17;12.33;;;10.70;99.90;;;;;;4966363;28;20480;-83
2023/04/21 00:16:15;;;;;;;13.30;11.90;;;10.70;99.90;;;;;;4942674;28;20463;-83
2023/04/21 00:18:55;;;;;;;12.57;11.03;;;10.60;99.90;;;;;;4941223;28;20461;-84
2023/04/21 00:21:40;;;;;;;;;;;;;;;;;;;;;
2023/04/21 00:24:39;;;;;;;14.03;12.63;;;11.10;99.90;;;;;;4945699;28;20496;-84
2023/04/21 00:27:30;;;;;;;14.57;13.17;;;11.20;99.90;;;;;;4957092;28;20489;-83
2023/04/21 00:30:24;;;;;;;14.60;13.20;;;11.30;99.90;;;;;;4945971;28;20476;-85
2023/04/21 00:33:12;;;;;;;;;;;;;;;;;;;;;
2023/04/21 00:35:59;;;;;;;14.37;12.67;;;11.10;99.90;;;;;;4939222;29;20453;-84
2023/04/21 00:38:47;;;;;;;15.03;13.33;;;11.20;99.90;;;;;;4936469;29;20512;-83
2023/04/21 00:41:17;;;;;;;14.00;12.70;;;11.10;99.90;;;;;;4939422;29;20650;-83
2023/04/21 00:44:12;;;;;;;13.80;12.40;;;11.00;99.90;;;;;;4937449;28;20468;-84
2023/04/21 00:46:56;;;;;;;14.17;12.80;;;10.80;99.90;;;;;;4949366;28;20507;-81
2023/04/21 00:49:42;;;;;;;13.67;12.37;;;10.70;99.90;;;;;;4931643;28;20969;-83
2023/04/21 00:55:38;;;;;;;14.50;13.00;;;10.70;99.90;;;;;;4945631;29;20492;-83
2023/04/21 00:58:44;;;;;;;14.27;12.77;;;10.90;99.90;;;;;;4940098;28;20591;-83
2023/04/21 01:01:13;;;;;;;15.10;13.50;;;11.10;99.90;;;;;;4947655;29;20873;-83
2023/04/21 01:03:42;;;;;;;13.67;12.23;;;11.00;99.90;;;;;;4943027;28;20469;-82
2023/04/21 01:06:10;;;;;;;17.20;13.20;;;10.90;99.90;;;;;;4943921;28;20507;-83
2023/04/21 01:08:39;;;;;;;14.27;12.83;;;10.80;99.90;;;;;;4943071;29;20546;-83
2023/04/21 01:11:11;;;;;;;13.33;11.93;;;10.80;99.90;;;;;;4926987;29;20552;-82
2023/04/21 01:13:39;;;;;;;13.83;12.43;;;10.80;99.90;;;;;;4958552;28;20480;-83
2023/04/21 01:16:07;;;;;;;15.50;13.90;;;11.00;99.90;;;;;;4946559;28;20846;-81
2023/04/21 01:18:35;;;;;;;14.17;12.70;;;11.00;99.90;;;;;;4948678;29;20504;-82
2023/04/21 01:21:05;;;;;;;14.57;13.13;;;10.90;99.90;;;;;;4948237;29;20463;-83
2023/04/21 01:23:32;;;;;;;15.63;14.00;;;11.00;99.90;;;;;;4948010;28;20468;-82
2023/04/21 01:25:59;;;;;;;14.00;12.60;;;10.90;99.90;;;;;;4963636;28;20476;-83
2023/04/21 01:28:27;;;;;;;14.50;13.00;;;10.80;99.90;;;;;;4948302;28;20480;-83
2023/04/21 01:30:56;;;;;;;15.27;13.63;;;10.80;99.90;;;;;;4947492;29;20539;-84
2023/04/21 01:33:24;;;;;;;15.37;13.77;;;10.90;99.90;;;;;;4949187;29;20468;-82
2023/04/21 01:35:54;;;;;;;16.33;14.73;;;11.20;99.90;;;;;;4947933;29;20480;-81
2023/04/21 01:38:22;;;;;;;17.53;15.40;;;11.10;99.90;;;;;;4948047;29;20539;-83
2023/04/21 01:40:51;;;;;;;14.43;12.80;;;11.00;99.90;;;;;;4946072;28;20469;-83
2023/04/21 01:43:20;;;;;;;16.47;14.73;;;10.80;99.90;;;;;;4944751;28;20480;-84
2023/04/21 01:45:51;;;;;;;16.50;14.70;;;11.00;99.90;;;;;;4960836;28;20465;-82
2023/04/21 01:48:18;;;;;;;16.30;14.47;;;10.80;99.90;;;;;;4963506;28;21039;-83
2023/04/21 01:50:45;;;;;;;18.83;16.40;;;10.90;99.90;;;;;;4949562;28;20493;-83
2023/04/21 01:53:12;;;;;;;15.70;14.10;;;11.20;99.90;;;;;;4948100;28;20477;-84
2023/04/21 01:55:41;;;;;;;15.93;14.03;;;11.10;99.90;;;;;;4964339;28;20490;-83
2023/04/21 01:58:13;;;;;;;20.60;15.47;;;11.30;99.90;;;;;;4967792;28;20553;-83
2023/04/21 02:00:40;;;;;;;17.63;14.97;;;11.10;99.90;;;;;;4953732;28;20457;-82
2023/04/21 02:03:08;;;;;;;16.57;13.93;;;11.00;99.90;;;;;;4950039;28;20448;-83
2023/04/21 02:05:35;;;;;;;18.37;16.50;;;11.00;99.90;;;;;;4959831;28;20496;-83
2023/04/21 02:08:02;;;;;;;16.57;14.77;;;11.00;99.90;;;;;;4982881;28;20626;-82
2023/04/21 02:10:35;;;;;;;17.13;15.33;;;11.00;99.90;;;;;;4964516;28;20459;-83
2023/04/21 02:13:01;;;;;;;18.60;15.87;;;10.90;99.90;;;;;;4965949;28;20449;-81
2023/04/21 02:15:32;;;;;;;16.93;15.00;;;11.00;99.90;;;;;;4965291;28;20476;-80
2023/04/21 02:17:59;;;;;;;18.10;15.60;;;10.80;99.90;;;;;;4961517;28;20476;-82
2023/04/21 02:20:26;;;;;;;17.73;15.87;;;10.80;99.90;;;;;;4958584;29;21005;-81
2023/04/21 02:22:53;;;;;;;18.57;15.37;;;10.70;99.90;;;;;;4940543;28;20528;-83
2023/04/21 02:25:20;;;;;;;17.57;15.47;;;10.80;99.90;;;;;;4959844;28;20515;-80
2023/04/21 02:27:46;;;;;;;17.27;15.30;;;10.70;99.90;;;;;;4942606;28;20485;-84
2023/04/21 02:30:14;;;;;;;16.60;14.73;;;10.60;99.90;;;;;;4945761;29;20457;-83
2023/04/21 02:32:41;;;;;;;16.53;14.47;;;10.50;99.90;;;;;;4947241;29;20452;-82
2023/04/21 02:35:08;;;;;;;17.73;15.13;;;10.70;99.90;;;;;;4961447;29;20489;-85
2023/04/21 02:37:35;;;;;;;18.73;15.63;;;10.70;99.90;;;;;;4959421;29;20477;-84
2023/04/21 02:40:02;;;;;;;20.73;16.27;;;10.70;99.90;;;;;;4962020;29;20516;-85
2023/04/21 02:42:29;;;;;;;19.70;15.60;;;10.60;99.90;;;;;;4985272;28;20471;-81
2023/04/21 02:44:55;;;;;;;20.33;16.80;;;10.40;99.90;;;;;;4960535;28;20520;-80
2023/04/21 02:47:25;;;;;;;18.00;16.07;;;10.40;99.90;;;;;;4983963;28;20460;-82
2023/04/21 02:49:52;;;;;;;19.17;16.00;;;10.30;99.90;;;;;;4969489;28;20543;-83
2023/04/21 02:52:18;;;;;;;19.07;16.07;;;10.10;99.90;;;;;;4968549;28;20449;-82
2023/04/21 02:54:48;;;;;;;19.40;16.57;;;10.40;99.90;;;;;;4968179;28;20479;-82
2023/04/21 02:57:16;;;;;;;18.07;14.70;;;10.20;99.90;;;;;;4974424;28;20480;-81
2023/04/21 02:59:45;;;;;;;17.93;15.97;;;10.10;99.90;;;;;;4962339;28;20537;-81
2023/04/21 03:02:12;;;;;;;17.97;15.40;;;10.40;99.90;;;;;;4983685;28;20481;-83
2023/04/21 03:04:39;;;;;;;17.67;15.77;;;10.20;99.90;;;;;;4967249;28;21770;-84
2023/04/21 03:07:11;;;;;;;17.80;15.73;;;10.00;99.90;;;;;;4969072;28;20468;-82
2023/04/21 03:09:38;;;;;;;18.23;15.90;;;10.20;99.90;;;;;;4967918;28;20453;-83
2023/04/21 03:12:06;;;;;;;19.07;15.70;;;10.20;99.90;;;;;;4968411;28;20461;-82
2023/04/21 03:14:36;;;;;;;18.53;16.53;;;10.20;99.90;;;;;;4973018;28;20477;-82
2023/04/21 03:17:03;;;;;;;18.80;16.37;;;10.00;99.90;;;;;;4953092;28;20473;-82
2023/04/21 03:19:31;;;;;;;16.63;14.90;;;9.90;99.90;;;;;;4949653;28;20524;-82
2023/04/21 03:21:59;;;;;;;18.80;15.37;;;9.80;99.90;;;;;;4945123;28;21006;-82
2023/04/21 03:24:28;;;;;;;19.70;17.13;;;10.00;99.90;;;;;;4947919;28;20482;-83
2023/04/21 03:26:55;;;;;;;22.00;17.13;;;10.00;99.90;;;;;;4947091;28;20484;-83
2023/04/21 03:29:22;;;;;;;21.03;17.40;;;10.10;99.90;;;;;;4944580;29;20459;-83
2023/04/21 03:31:49;;;;;;;22.70;17.93;;;10.20;99.90;;;;;;4942516;29;20647;-83
2023/04/21 03:34:16;;;;;;;21.57;17.13;;;10.20;99.90;;;;;;4953066;28;20457;-82
2023/04/21 03:36:42;;;;;;;20.97;18.13;;;10.20;99.90;;;;;;4914316;28;21016;-83
2023/04/21 03:39:09;;;;;;;22.37;18.13;;;10.20;99.90;;;;;;4943021;28;20493;-84
2023/04/21 03:41:45;;;;;;;22.20;17.70;;;10.20;99.90;;;;;;4944047;28;20456;-84
2023/04/21 03:44:12;;;;;;;21.90;18.67;;;10.00;99.90;;;;;;4894600;28;20479;-82
2023/04/21 03:46:39;;;;;;;19.40;16.80;;;10.00;99.90;;;;;;4944143;29;21998;-82
2023/04/21 03:49:08;;;;;;;21.30;19.10;;;9.90;99.90;;;;;;4942737;29;20449;-82
2023/04/21 03:51:34;;;;;;;21.17;18.67;;;10.00;99.90;;;;;;4942863;28;20461;-81
2023/04/21 03:54:01;;;;;;;20.70;18.50;;;10.20;99.90;;;;;;4944191;28;20527;-81
2023/04/21 03:56:28;;;;;;;22.23;18.47;;;10.30;99.90;;;;;;4950884;28;20485;-81
2023/04/21 03:58:55;;;;;;;24.33;19.50;;;10.20;99.90;;;;;;4945577;29;20457;-81
2023/04/21 04:01:22;;;;;;;22.70;18.13;;;10.10;99.90;;;;;;4963331;28;20461;-84
2023/04/21 04:03:48;;;;;;;20.90;18.10;;;9.90;99.90;;;;;;4943950;28;20548;-82
2023/04/21 04:06:15;;;;;;;21.83;18.37;;;9.80;99.90;;;;;;4943901;28;20925;-83
2023/04/21 04:08:42;;;;;;;24.77;19.27;;;9.80;99.90;;;;;;4960211;28;20468;-82
2023/04/21 04:11:09;;;;;;;22.00;19.40;;;9.80;99.90;;;;;;4946536;28;20465;-83
2023/04/21 04:13:35;;;;;;;22.13;19.83;;;9.70;99.90;;;;;;4944823;28;20441;-83
2023/04/21 04:16:02;;;;;;;19.60;17.47;;;9.70;99.90;;;;;;4951046;28;20792;-81
2023/04/21 04:18:29;;;;;;;20.87;18.60;;;9.70;99.90;;;;;;4950555;28;20537;-83
2023/04/21 04:20:55;;;;;;;20.70;18.10;;;9.70;99.90;;;;;;4947987;29;20464;-85
2023/04/21 04:23:22;;;;;;;21.30;17.83;;;9.70;99.90;;;;;;4951178;28;20465;-83
2023/04/21 04:25:50;;;;;;;21.13;17.53;;;9.80;99.90;;;;;;4945727;29;20492;-84
2023/04/21 04:28:17;;;;;;;22.03;18.17;;;9.80;99.90;;;;;;4946472;29;20541;-83
2023/04/21 04:30:46;;;;;;;20.43;17.23;;;9.70;99.90;;;;;;4944699;28;20488;-82
2023/04/21 04:33:13;;;;;;;21.00;17.97;;;9.70;99.90;;;;;;4945340;28;20464;-84
2023/04/21 04:35:39;;;;;;;22.83;19.20;;;9.80;99.90;;;;;;4945749;29;20491;-85
2023/04/21 04:38:06;;;;;;;20.37;16.93;;;9.90;99.90;;;;;;4945099;28;20485;-83
2023/04/21 04:40:33;;;;;;;21.73;17.73;;;9.90;99.90;;;;;;4946338;29;20904;-83
2023/04/21 04:43:01;;;;;;;24.50;20.70;;;9.90;99.90;;;;;;4948075;28;20878;-83
2023/04/21 04:45:31;;;;;;;22.03;17.93;;;9.80;99.90;;;;;;4946615;29;20463;-83
2023/04/21 04:47:58;;;;;;;20.90;18.07;;;9.90;99.90;;;;;;4951794;28;20469;-85
2023/04/21 04:50:26;;;;;;;20.03;16.60;;;10.00;99.90;;;;;;4960187;28;20461;-82
2023/04/21 04:52:53;;;;;;;21.20;17.43;;;10.10;99.90;;;;;;4943469;28;20552;-83
2023/04/21 04:55:22;;;;;;;22.20;19.80;;;10.10;99.90;;;;;;4958658;28;20493;-83
2023/04/21 04:57:50;;;;;;;24.03;19.77;;;10.10;99.90;;;;;;4943651;28;20469;-83
2023/04/21 05:00:17;;;;;;;24.33;20.70;;;10.10;99.90;;;;;;4944701;28;20461;-84
2023/04/21 05:02:47;;;;;;;22.27;18.40;;;10.20;99.90;;;;;;4942691;28;20472;-83
2023/04/21 05:05:14;;;;;;;27.13;20.13;;;10.20;99.90;;;;;;4945507;28;20460;-84
2023/04/21 05:07:41;;;;;;;26.30;19.43;;;10.10;99.90;;;;;;4958618;28;20504;-83
2023/04/21 05:10:08;;;;;;;26.40;20.37;;;10.10;99.90;;;;;;4960488;28;20496;-83
2023/04/21 05:12:37;;;;;;;23.20;18.93;;;10.10;99.90;;;;;;4943824;28;20481;-85
2023/04/21 05:15:05;;;;;;;24.20;18.50;;;10.10;99.90;;;;;;4946257;29;20525;-84
2023/04/21 05:17:33;;;;;;;23.80;20.00;;;10.20;99.90;;;;;;4945119;29;20484;-82
2023/04/21 05:19:59;;;;;;;25.20;20.10;;;10.20;99.90;;;;;;4948610;28;20487;-82
2023/04/21 05:22:27;;;;;;;27.27;19.43;;;10.10;99.90;;;;;;4947224;29;20511;-81
2023/04/21 05:24:54;;;;;;;24.20;20.20;;;10.20;99.90;;;;;;4965105;28;20487;-83
2023/04/21 05:27:21;;;;;;;21.90;17.97;;;10.20;99.90;;;;;;4965578;28;20477;-81
2023/04/21 05:29:47;;;;;;;24.97;20.00;;;10.10;99.90;;;;;;4955100;28;20471;-83
2023/04/21 05:32:14;;;;;;;24.07;19.40;;;10.20;99.90;;;;;;4945639;28;20457;-84
2023/04/21 05:34:41;;;;;;;22.37;18.90;;;10.10;99.90;;;;;;4962004;28;20472;-84
2023/04/21 05:37:10;;;;;;;22.90;18.73;;;10.10;99.90;;;;;;4944499;28;20496;-82
2023/04/21 05:39:37;;;;;;;21.20;18.53;;;9.90;99.90;;;;;;4947062;28;20560;-83
2023/04/21 05:42:10;;;;;;;21.40;19.10;;;9.80;99.90;;;;;;4944992;28;20464;-82
2023/04/21 05:44:39;;;;;;;25.37;19.70;;;9.90;99.90;;;;;;4942223;28;20551;-85
2023/04/21 05:47:06;;;;;;;21.80;18.60;;;10.10;99.90;;;;;;4940607;28;20480;-85
2023/04/21 05:49:36;;;;;;;24.30;19.33;;;10.10;99.90;;;;;;4941668;28;21853;-84
2023/04/21 05:52:13;;;;;;;24.87;19.67;;;10.10;99.90;;;;;;4944037;28;21730;-83
2023/04/21 05:54:41;;;;;;;27.20;19.80;;;10.00;99.90;;;;;;4941027;28;20845;-81
2023/04/21 05:57:29;;;;;;;24.60;19.93;;;9.90;99.90;;;;;;4941805;28;21768;-82
2023/04/21 06:00:06;;;;;;;26.13;20.00;;;9.80;99.90;;;;;;4947770;29;20571;-83
2023/04/21 06:02:54;;;;;;;22.93;18.40;;;9.90;99.90;;;;;;4946447;28;20473;-83
2023/04/21 06:05:22;;;;;;;23.63;18.30;;;10.00;99.90;;;;;;4947318;28;20484;-83
2023/04/21 06:07:49;;;;;;;28.00;20.27;;;9.90;99.90;;;;;;4947641;29;20505;-83
2023/04/21 06:10:26;;;;;;;21.97;18.40;;;10.00;99.90;;;;;;4963025;28;20455;-83
2023/04/21 06:13:08;;;;;;;23.07;19.07;;;10.70;99.90;;;;;;4946934;28;20461;-82
2023/04/21 06:15:39;;;;;;;24.17;18.40;;;11.30;99.90;;;;;;4962042;28;20487;-83
2023/04/21 06:18:09;;;;;;;19.90;17.00;;;12.20;99.90;;;;;;4963612;28;20477;-83
2023/04/21 06:20:56;;;;;;;20.93;18.53;;;12.90;99.90;;;;;;4945427;28;20480;-84
2023/04/21 06:23:29;;;;;;;20.53;16.80;;;12.70;98.20;;;;;;5035728;23;20499;-83
2023/04/21 06:26:06;;;;;;;21.50;17.73;;;12.20;98.50;;;;;;4971387;28;20528;-83
2023/04/21 06:28:45;;;;;;;20.03;17.03;;;11.60;99.00;;;;;;4957773;29;20516;-83
2023/04/21 06:31:19;;;;;;;23.47;17.70;;;11.40;99.90;;;;;;4958478;28;20544;-85
2023/04/21 06:33:48;;;;;;;18.60;16.10;;;11.20;99.90;;;;;;4959883;28;20469;-80
2023/04/21 06:36:35;;;;;;;19.10;16.77;;;10.70;99.90;;;;;;4989094;28;20488;-83
2023/04/21 06:39:08;;;;;;;19.80;16.80;;;10.80;99.90;;;;;;4955340;28;20472;-83
2023/04/21 06:41:41;;;;;;;20.60;16.50;;;11.00;99.90;;;;;;4945879;29;20485;-83
2023/04/21 06:44:13;;;;;;;20.77;16.70;;;11.30;99.90;;;;;;4947064;29;20464;-83
2023/04/21 06:46:41;;;;;;;22.70;17.83;;;11.50;99.90;;;;;;4946952;28;20487;-86
2023/04/21 06:49:21;;;;;;;19.03;16.00;;;11.40;99.90;;;;;;4945882;28;21026;-84
2023/04/21 06:51:49;;;;;;;19.87;16.50;;;11.80;99.90;;;;;;4945029;28;20457;-85
2023/04/21 06:54:23;;;;;;;22.07;18.00;;;12.90;99.90;;;;;;4946682;29;20822;-84
2023/04/21 06:56:50;;;;;;;17.80;15.03;;;14.20;97.90;;;;;;4948711;28;20484;-85
2023/04/21 06:59:23;;;;;;;19.53;16.37;;;14.90;94.60;;;;;;4939906;28;20547;-83
2023/04/21 07:01:53;;;;;;;17.40;14.70;;;14.70;93.20;;;;;;4942876;28;20457;-82
2023/04/21 07:04:30;;;;;;;23.23;15.97;;;14.50;92.90;;;;;;4945615;29;20453;-82
2023/04/21 07:07:16;;;;;;;16.40;14.57;;;13.80;93.10;;;;;;4945276;28;20473;-84
2023/04/21 07:10:07;;;;;;;18.00;16.10;;;13.20;94.50;;;;;;4944080;29;20469;-83
2023/04/21 07:12:36;;;;;;;19.43;15.67;;;13.60;95.10;;;;;;4945158;28;20506;-80
2023/04/21 07:15:27;;;;;;;17.27;15.03;;;13.90;94.80;;;;;;4959606;28;20549;-83
2023/04/21 07:18:06;;;;;;;19.10;16.00;;;15.20;94.10;;;;;;4978543;28;20568;-83
2023/04/21 07:20:45;;;;;;;15.50;13.90;;;16.40;91.60;;;;;;4944441;28;20547;-83
2023/04/21 07:23:14;;;;;;;16.43;13.87;;;17.40;89.10;;;;;;4944500;28;20483;-83
2023/04/21 07:25:53;;;;;;;18.00;15.63;;;19.40;83.90;;;;;;4943953;28;20496;-84
2023/04/21 07:28:27;;;;;;;17.03;15.23;;;21.00;74.50;;;;;;4942895;28;20473;-81
2023/04/21 07:30:59;;;;;;;16.47;14.87;;;21.50;67.80;;;;;;4943086;28;20449;-83
2023/04/21 07:33:40;;;;;;;16.97;15.20;;;21.50;65.80;;;;;;4941235;28;20495;-82
2023/04/21 07:36:39;;;;;;;16.87;15.00;;;21.20;66.70;;;;;;4942465;28;20481;-84
2023/04/21 07:39:09;;;;;;;16.30;14.70;;;21.70;65.20;;;;;;4944864;28;21496;-82
2023/04/21 07:41:39;;;;;;;16.73;15.03;;;22.50;62.60;;;;;;4940853;29;20461;-81
2023/04/21 07:44:11;;;;;;;16.20;14.60;;;21.80;61.40;;;;;;4958550;28;21022;-82
2023/04/21 07:46:49;;;;;;;15.50;14.00;;;21.30;61.90;;;;;;4943430;29;20489;-82
2023/04/21 07:49:19;;;;;;;16.73;15.03;;;20.50;63.70;;;;;;4945164;28;20460;-83
2023/04/21 07:51:50;;;;;;;16.50;15.00;;;19.60;66.90;;;;;;4945197;29;20992;-81
2023/04/21 07:54:17;;;;;;;16.67;14.97;;;18.70;69.60;;;;;;4960292;28;20488;-82
2023/04/21 07:56:47;;;;;;;16.20;14.60;;;19.50;69.80;;;;;;4941090;29;20816;-83
2023/04/21 07:59:17;;;;;;;20.47;14.23;;;18.10;69.10;;;;;;4956453;29;20460;-82
2023/04/21 08:01:44;;;;;;;17.27;14.40;;;16.60;75.10;;;;;;4959413;29;20441;-82
2023/04/21 08:04:14;;;;;;;16.60;14.90;;;15.90;80.50;;;;;;4967840;28;20456;-83
2023/04/21 08:06:51;;;;;;;21.10;18.30;;;15.00;83.60;;;;;;4970369;28;20465;-83
2023/04/21 08:09:21;;;;;;;18.47;15.07;;;14.30;87.80;;;;;;4956036;28;20473;-83
2023/04/21 08:11:56;;;;;;;17.20;15.40;;;14.60;90.90;;;;;;4947834;28;20461;-85
2023/04/21 08:14:27;;;;;;;17.87;15.17;;;15.10;90.50;;;;;;4944517;28;20485;-83
2023/04/21 08:17:00;;;;;;;20.47;16.50;;;15.00;90.10;;;;;;4946757;28;21034;-83
2023/04/21 08:19:27;;;;;;;17.47;15.67;;;14.50;91.10;;;;;;4945391;28;20585;-83
2023/04/21 08:22:01;;;;;;;22.27;14.97;;;14.70;91.80;;;;;;4941436;28;20516;-84
2023/04/21 08:24:35;;;;;;;19.60;15.23;;;14.90;91.30;;;;;;4942595;28;20667;-83
2023/04/21 08:27:05;;;;;;;18.03;15.47;;;14.80;91.20;;;;;;4944186;29;21121;-84
2023/04/21 08:29:34;;;;;;;17.80;16.00;;;15.30;91.40;;;;;;4946938;29;20489;-84
2023/04/21 08:32:05;;;;;;;18.60;16.77;;;15.30;90.50;;;;;;4945438;29;20475;-82
2023/04/21 08:34:34;;;;;;;17.20;14.57;;;15.50;90.90;;;;;;4944312;28;20464;-82
2023/04/21 08:37:07;;;;;;;16.17;14.50;;;16.50;90.40;;;;;;4944446;29;20496;-83
2023/04/21 08:39:35;;;;;;;16.97;15.20;;;17.00;86.40;;;;;;4945647;29;20548;-83
2023/04/21 08:42:03;;;;;;;18.10;15.20;;;17.50;83.00;;;;;;4945006;29;20465;-83
2023/04/21 08:44:31;;;;;;;17.60;15.70;;;17.00;83.40;;;;;;4944537;28;20503;-85
2023/04/21 08:47:00;;;;;;;17.93;15.70;;;16.40;86.20;;;;;;4945128;29;20469;-84
2023/04/21 08:49:30;;;;;;;18.20;15.60;;;16.40;87.40;;;;;;4945695;29;20461;-82
2023/04/21 08:52:02;;;;;;;18.07;15.10;;;16.50;86.70;;;;;;4974448;28;20555;-84
2023/04/21 08:54:36;;;;;;;18.67;16.53;;;16.30;88.30;;;;;;4975956;28;20495;-83
2023/04/21 08:57:06;;;;;;;22.00;16.90;;;17.30;87.60;;;;;;4974309;28;20492;-84
2023/04/21 08:59:41;;;;;;;19.60;15.13;;;19.10;84.40;;;;;;4943236;29;20449;-83
2023/04/21 09:02:17;;;;;;;17.60;15.37;;;20.60;74.20;;;;;;4943118;29;20507;-84
2023/04/21 09:04:58;;;;;;;15.70;14.00;;;19.50;71.80;;;;;;4927275;29;20468;-84
2023/04/21 09:07:41;;;;;;;15.40;13.60;;;18.60;77.10;;;;;;4942384;29;20496;-84
2023/04/21 09:10:30;;;;;;;15.67;13.80;;;19.60;76.50;;;;;;4974523;28;20460;-82
2023/04/21 09:13:16;;;;;;;15.80;14.20;;;19.80;72.40;;;;;;4974448;28;20472;-81
2023/04/21 09:15:51;;;;;;;18.57;16.63;;;20.00;73.30;;;;;;4941555;29;22351;-85
2023/04/21 09:18:22;;;;;;;15.20;13.63;;;21.20;69.80;;;;;;4942100;29;20485;-84
2023/04/21 09:21:24;;;;;;;14.30;12.87;;;21.90;66.60;;;;;;4971443;28;20505;-84
2023/04/21 09:24:16;;;;;;;16.60;14.07;;;22.40;63.80;;;;;;4949955;28;20468;-84
2023/04/21 09:27:17;;;;;;;14.87;13.37;;;22.00;62.90;;;;;;4947465;28;20503;-82
2023/04/21 09:30:06;;;;;;;15.77;13.70;;;22.10;63.70;;;;;;4947185;28;20475;-84
2023/04/21 09:32:57;;;;;;;16.20;14.60;;;20.90;65.60;;;;;;4943860;29;20476;-85
2023/04/21 09:35:38;;;;;;;15.90;14.40;;;21.00;66.90;;;;;;4946537;28;20834;-84
2023/04/21 09:38:14;;;;;;;15.47;13.97;;;20.30;67.40;;;;;;4951152;28;20539;-83
2023/04/21 09:41:00;;;;;;;15.93;14.43;;;20.00;69.80;;;;;;4946161;28;20449;-85
2023/04/21 09:43:33;;;;;;;15.33;13.83;;;19.80;70.10;;;;;;4948145;28;20453;-84
2023/04/21 09:46:05;;;;;;;16.93;14.77;;;20.00;70.60;;;;;;4949409;28;20559;-85
2023/04/21 09:48:44;;;;;;;16.47;14.57;;;20.60;69.00;;;;;;4952797;28;20460;-82
2023/04/21 09:51:34;;;;;;;15.00;13.50;;;20.80;67.40;;;;;;4952748;29;20511;-82
2023/04/21 09:55:13;;;;;;;15.20;13.60;;;20.90;68.00;;;;;;4951561;28;21133;-85
2023/04/21 09:57:47;;;;;;;14.80;12.90;;;21.80;65.60;;;;;;4951236;28;20507;-84
2023/04/21 10:00:17;;;;;;;14.70;13.30;;;20.90;65.70;;;;;;4951291;28;20483;-84
2023/04/21 10:02:53;;;;;;;17.10;15.40;;;19.50;69.10;;;;;;4949962;29;21636;-84
2023/04/21 10:05:35;;;;;;;14.00;12.57;;;18.80;72.50;;;;;;4982479;28;20532;-83
2023/04/21 10:08:26;;;;;;;15.57;13.50;;;18.70;74.00;;;;;;4948329;29;21202;-84
2023/04/21 10:11:00;;;;;;;15.60;14.00;;;19.10;73.70;;;;;;4950327;29;20467;-85
2023/04/21 10:13:51;;;;;;;14.87;13.37;;;19.30;72.40;;;;;;4954439;28;20473;-83
2023/04/21 10:16:26;;;;;;;16.20;14.60;;;19.70;70.90;;;;;;4951095;29;20492;-81
2023/04/21 10:19:38;;;;;;;14.80;12.87;;;20.30;70.60;;;;;;4953798;28;20445;-83
2023/04/21 10:22:44;;;;;;;14.77;12.27;;;20.80;68.10;;;;;;4956110;28;21035;-84
2023/04/21 10:25:34;;;;;;;14.00;12.60;;;20.10;67.50;;;;;;4982221;28;20802;-83
2023/04/21 10:28:54;;;;;;;15.33;13.47;;;20.20;68.70;;;;;;4954324;28;20467;-84
2023/04/21 10:31:55;;;;;;;15.10;13.60;;;20.50;69.10;;;;;;4956521;28;20532;-84
2023/04/21 10:34:51;;;;;;;15.30;13.23;;;20.90;67.00;;;;;;4985102;28;20457;-83
2023/04/21 10:37:36;;;;;;;14.73;13.13;;;20.70;66.70;;;;;;4953307;28;20497;-84
2023/04/21 10:41:13;;;;;;;11.83;10.60;;;21.20;64.80;;;;;;4955007;29;20488;-83
2023/04/21 10:44:17;;;;;;;10.93;9.83;;;21.40;64.10;;;;;;4957439;29;20468;-86
2023/04/21 10:47:03;;;;;;;12.83;11.00;;;22.00;61.50;;;;;;4969678;28;20480;-83
2023/04/21 10:49:46;;;;;;;11.77;10.60;;;20.90;62.80;;;;;;4963634;28;20492;-83
2023/04/21 10:52:36;;;;;;;12.47;10.63;;;20.00;65.30;;;;;;4968787;28;20460;-85
2023/04/21 10:55:14;;;;;;;12.60;11.30;;;19.80;66.10;;;;;;4968276;28;20441;-84
2023/04/21 10:57:57;;;;;;;11.37;10.23;;;19.80;66.40;;;;;;4968471;28;20544;-84
2023/04/21 11:00:30;;;;;;;10.37;9.27;;;20.10;66.10;;;;;;4966134;28;20471;-85
2023/04/21 11:03:22;;;;;;;9.97;8.80;;;20.50;64.10;;;;;;4955487;28;20453;-86
2023/04/21 11:06:17;;;;;;;10.33;9.33;;;20.90;63.80;;;;;;4938401;28;20469;-84
2023/04/21 11:08:57;;;;;;;8.80;8.00;;;21.00;62.90;;;;;;4942577;28;20582;-83
2023/04/21 11:11:39;;;;;;;11.17;9.97;;;21.50;59.90;;;;;;4943115;28;20461;-85
2023/04/21 11:14:11;;;;;;;11.10;10.00;;;21.70;59.30;;;;;;4946402;28;20577;-83
2023/04/21 11:16:51;;;;;;;9.47;8.57;;;21.80;59.30;;;;;;4925659;29;20489;-83
2023/04/21 11:19:24;;;;;;;9.13;8.33;;;22.20;58.70;;;;;;4944185;29;20480;-83
2023/04/21 11:21:53;;;;;;;11.33;9.67;;;22.20;57.30;;;;;;4944976;29;20461;-83
2023/04/21 11:24:31;;;;;;;11.60;9.33;;;22.50;57.40;;;;;;4974975;28;21036;-83
2023/04/21 11:27:00;;;;;;;10.00;9.00;;;21.80;58.20;;;;;;4944898;29;20484;-82
2023/04/21 11:29:41;;;;;;;8.23;7.47;;;22.10;57.80;;;;;;4950427;29;20465;-86
2023/04/21 11:32:22;;;;;;;8.07;7.27;;;22.00;56.30;;;;;;4961972;29;20475;-88
2023/04/21 11:34:56;;;;;;;7.53;6.83;;;21.70;55.10;;;;;;4960252;29;20461;-84
2023/04/21 11:37:31;;;;;;;8.27;7.47;;;22.40;54.40;;;;;;4958862;29;20484;-85
2023/04/21 11:40:02;;;;;;;8.23;7.30;;;22.80;54.30;;;;;;4957271;29;20453;-84
2023/04/21 11:42:40;;;;;;;8.10;7.07;;;23.00;54.50;;;;;;4991204;28;20477;-84
2023/04/21 11:45:23;;;;;;;7.83;6.87;;;22.70;55.10;;;;;;4918251;28;20716;-85
2023/04/21 11:48:00;;;;;;;7.20;6.60;;;22.70;54.40;;;;;;4959741;29;20495;-88
2023/04/21 11:50:33;;;;;;;7.80;7.10;;;22.60;54.70;;;;;;4989817;28;20461;-84
2023/04/21 11:53:14;;;;;;;7.23;6.60;;;23.20;54.60;;;;;;4957109;29;20668;-86
2023/04/21 11:55:55;;;;;;;10.40;7.33;;;23.80;52.70;;;;;;4955908;29;20457;-83
2023/04/21 11:58:27;;;;;;;8.70;7.90;;;23.30;53.50;;;;;;4955722;29;20492;-84
2023/04/21 12:01:00;;;;;;;9.30;8.40;;;22.80;54.30;;;;;;4952162;28;20465;-84
2023/04/21 12:03:49;;;;;;;10.13;7.97;;;22.70;55.50;;;;;;4955320;28;20441;-83
2023/04/21 12:06:25;;;;;;;8.83;8.03;;;22.70;55.40;;;;;;4946538;28;20480;-86
2023/04/21 12:09:03;;;;;;;9.43;8.53;;;22.30;56.60;;;;;;4946780;28;20461;-86
2023/04/21 12:11:36;;;;;;;8.93;8.07;;;21.90;57.60;;;;;;4945043;28;20463;-82
2023/04/21 12:14:36;;;;;;;6.23;5.73;;;22.00;57.30;;;;;;4944923;29;20528;-83
2023/04/21 12:17:06;;;;;;;6.93;6.33;;;22.10;55.40;;;;;;4951079;29;20487;-86
2023/04/21 12:19:40;;;;;;;9.33;8.53;;;22.10;55.00;;;;;;4957287;28;20491;-83
2023/04/21 12:22:14;;;;;;;7.83;7.00;;;22.40;55.20;;;;;;4956336;28;20464;-83
2023/04/21 12:24:44;;;;;;;7.37;6.60;;;22.20;55.60;;;;;;4980341;28;20524;-82
2023/04/21 12:27:19;;;;;;;6.87;6.17;;;22.50;54.90;;;;;;4946932;28;20520;-82
2023/04/21 12:29:55;;;;;;;6.83;6.23;;;22.10;55.90;;;;;;4945059;29;20627;-83
2023/04/21 12:32:25;;;;;;;6.97;6.30;;;22.00;55.80;;;;;;4975278;28;20472;-81
2023/04/21 12:34:56;;;;;;;7.23;6.53;;;22.30;55.80;;;;;;4945475;28;20463;-84
2023/04/21 12:37:27;;;;;;;7.47;6.77;;;22.30;55.10;;;;;;4947989;29;20546;-85
2023/04/21 12:40:04;;;;;;;7.97;7.20;;;22.30;55.70;;;;;;4931782;29;20553;-85
2023/04/21 12:42:38;;;;;;;9.30;8.00;;;22.00;57.90;;;;;;4945996;28;20496;-86
2023/04/21 12:45:06;;;;;;;9.27;8.47;;;22.70;57.80;;;;;;4947244;28;21043;-84
2023/04/21 12:47:42;;;;;;;9.23;8.40;;;22.80;56.90;;;;;;4951312;28;20998;-84
2023/04/21 12:50:15;;;;;;;8.80;8.10;;;22.60;56.90;;;;;;4950349;28;20811;-83
2023/04/21 12:52:54;;;;;;;8.97;8.07;;;22.40;57.10;;;;;;4981556;28;20568;-84
2023/04/21 12:55:21;;;;;;;8.30;7.50;;;22.70;56.80;;;;;;4954664;28;20472;-84
2023/04/21 12:57:51;;;;;;;8.63;7.93;;;22.50;56.10;;;;;;4948358;29;20496;-84
2023/04/21 13:00:24;;;;;;;9.60;7.57;;;22.20;56.90;;;;;;4949595;28;20452;-83
2023/04/21 13:02:52;;;;;;;9.50;8.10;;;22.00;56.30;;;;;;4948783;28;20456;-83
2023/04/21 13:05:23;;;;;;;8.73;7.10;;;21.60;57.90;;;;;;4946497;28;20492;-84
2023/04/21 13:08:17;;;;;;;9.70;8.43;;;21.40;58.10;;;;;;4944820;29;20537;-84
2023/04/21 13:10:47;;;;;;;9.50;8.50;;;21.00;58.80;;;;;;4944917;29;20469;-83
2023/04/21 13:13:14;;;;;;;11.50;8.43;;;20.90;59.10;;;;;;4946126;29;20457;-82
2023/04/21 13:15:45;;;;;;;10.13;9.20;;;21.00;59.30;;;;;;4944351;28;20456;-84